sensor_id;sensor_type;location;lat;lon;timestamp;P1;durP1;ratioP1;P2;durP2;ratioP2
6255;SDS011;3161;48.794;9.784;2022-08-19T00:01:32;9.10;;;8.20;;
6255;SDS011;3161;48.794;9.784;2022-08-19T00:04:03;10.23;;;8.10;;
6255;SDS011;3161;48.794;9.784;2022-08-19T00:06:33;10.03;;;8.47;;
6255;SDS011;3161;48.794;9.784;2022-08-19T00:09:02;9.07;;;8.27;;
6255;SDS011;3161;48.794;9.784;2022-08-19T00:11:32;11.07;;;8.53;;
6255;SDS011;3161;48.794;9.784;2022-08-19T00:14:03;9.03;;;8.03;;
6255;SDS011;3161;48.794;9.784;2022-08-19T00:16:31;9.17;;;8.30;;
6255;SDS011;3161;48.794;9.784;2022-08-19T00:18:59;9.37;;;7.83;;
6255;SDS011;3161;48.794;9.784;2022-08-19T00:21:27;9.73;;;8.80;;
6255;SDS011;3161;48.794;9.784;2022-08-19T00:23:54;11.50;;;9.20;;
6255;SDS011;3161;48.794;9.784;2022-08-19T00:26:26;10.13;;;9.20;;
6255;SDS011;3161;48.794;9.784;2022-08-19T00:28:54;9.47;;;8.57;;
6255;SDS011;3161;48.794;9.784;2022-08-19T00:31:22;10.30;;;9.20;;
6255;SDS011;3161;48.794;9.784;2022-08-19T00:33:51;13.83;;;9.30;;
6255;SDS011;3161;48.794;9.784;2022-08-19T00:36:18;12.17;;;9.33;;
6255;SDS011;3161;48.794;9.784;2022-08-19T00:38:46;10.53;;;9.47;;
6255;SDS011;3161;48.794;9.784;2022-08-19T00:41:15;10.67;;;9.67;;
6255;SDS011;3161;48.794;9.784;2022-08-19T00:44:06;15.03;;;9.43;;
6255;SDS011;3161;48.794;9.784;2022-08-19T00:46:37;10.07;;;9.27;;
6255;SDS011;3161;48.794;9.784;2022-08-19T00:49:14;11.03;;;10.10;;
6255;SDS011;3161;48.794;9.784;2022-08-19T00:51:45;14.37;;;10.67;;
6255;SDS011;3161;48.794;9.784;2022-08-19T00:54:14;11.70;;;10.17;;
6255;SDS011;3161;48.794;9.784;2022-08-19T00:56:42;11.30;;;10.10;;
6255;SDS011;3161;48.794;9.784;2022-08-19T00:59:11;11.03;;;10.03;;
6255;SDS011;3161;48.794;9.784;2022-08-19T01:01:40;12.47;;;9.77;;
6255;SDS011;3161;48.794;9.784;2022-08-19T01:04:10;12.43;;;9.93;;
6255;SDS011;3161;48.794;9.784;2022-08-19T01:06:38;12.63;;;9.63;;
6255;SDS011;3161;48.794;9.784;2022-08-19T01:09:09;10.30;;;9.33;;
6255;SDS011;3161;48.794;9.784;2022-08-19T01:11:38;11.30;;;9.60;;
6255;SDS011;3161;48.794;9.784;2022-08-19T01:14:08;13.17;;;10.40;;
6255;SDS011;3161;48.794;9.784;2022-08-19T01:16:36;11.20;;;9.77;;
6255;SDS011;3161;48.794;9.784;2022-08-19T01:19:24;12.50;;;11.20;;
6255;SDS011;3161;48.794;9.784;2022-08-19T01:21:55;12.97;;;10.23;;
6255;SDS011;3161;48.794;9.784;2022-08-19T01:24:24;11.07;;;10.17;;
6255;SDS011;3161;48.794;9.784;2022-08-19T01:26:52;11.20;;;9.53;;
6255;SDS011;3161;48.794;9.784;2022-08-19T01:29:20;14.83;;;10.70;;
6255;SDS011;3161;48.794;9.784;2022-08-19T01:31:47;12.43;;;10.80;;
6255;SDS011;3161;48.794;9.784;2022-08-19T01:34:17;11.83;;;10.57;;
6255;SDS011;3161;48.794;9.784;2022-08-19T01:36:46;11.53;;;10.43;;
6255;SDS011;3161;48.794;9.784;2022-08-19T01:39:17;12.07;;;10.87;;
6255;SDS011;3161;48.794;9.784;2022-08-19T01:41:46;11.43;;;10.30;;
6255;SDS011;3161;48.794;9.784;2022-08-19T01:44:14;11.93;;;10.80;;
6255;SDS011;3161;48.794;9.784;2022-08-19T01:46:43;13.27;;;11.97;;
6255;SDS011;3161;48.794;9.784;2022-08-19T01:49:13;12.77;;;11.47;;
6255;SDS011;3161;48.794;9.784;2022-08-19T01:51:41;11.60;;;10.60;;
6255;SDS011;3161;48.794;9.784;2022-08-19T01:54:09;12.57;;;11.27;;
6255;SDS011;3161;48.794;9.784;2022-08-19T01:56:38;12.17;;;10.70;;
6255;SDS011;3161;48.794;9.784;2022-08-19T01:59:10;12.00;;;10.70;;
6255;SDS011;3161;48.794;9.784;2022-08-19T02:01:39;15.13;;;11.63;;
6255;SDS011;3161;48.794;9.784;2022-08-19T02:04:07;13.53;;;11.23;;
6255;SDS011;3161;48.794;9.784;2022-08-19T02:06:34;12.70;;;11.50;;
6255;SDS011;3161;48.794;9.784;2022-08-19T02:09:03;12.57;;;11.27;;
6255;SDS011;3161;48.794;9.784;2022-08-19T02:11:32;13.77;;;12.00;;
6255;SDS011;3161;48.794;9.784;2022-08-19T02:14:02;12.73;;;11.57;;
6255;SDS011;3161;48.794;9.784;2022-08-19T02:16:32;14.07;;;12.07;;
6255;SDS011;3161;48.794;9.784;2022-08-19T02:19:00;13.83;;;12.40;;
6255;SDS011;3161;48.794;9.784;2022-08-19T02:21:29;12.30;;;11.20;;
6255;SDS011;3161;48.794;9.784;2022-08-19T02:23:56;13.20;;;11.70;;
6255;SDS011;3161;48.794;9.784;2022-08-19T02:26:24;13.23;;;12.03;;
6255;SDS011;3161;48.794;9.784;2022-08-19T02:28:53;13.73;;;12.33;;
6255;SDS011;3161;48.794;9.784;2022-08-19T02:31:21;14.23;;;10.93;;
6255;SDS011;3161;48.794;9.784;2022-08-19T02:33:50;12.67;;;11.37;;
6255;SDS011;3161;48.794;9.784;2022-08-19T02:36:18;13.20;;;11.70;;
6255;SDS011;3161;48.794;9.784;2022-08-19T02:38:47;13.03;;;11.47;;
6255;SDS011;3161;48.794;9.784;2022-08-19T02:41:17;13.57;;;12.03;;
6255;SDS011;3161;48.794;9.784;2022-08-19T02:43:45;13.80;;;11.47;;
6255;SDS011;3161;48.794;9.784;2022-08-19T02:48:46;14.20;;;12.27;;
6255;SDS011;3161;48.794;9.784;2022-08-19T02:51:16;12.87;;;11.53;;
6255;SDS011;3161;48.794;9.784;2022-08-19T02:53:45;13.47;;;11.97;;
6255;SDS011;3161;48.794;9.784;2022-08-19T02:56:12;14.87;;;12.13;;
6255;SDS011;3161;48.794;9.784;2022-08-19T02:58:41;13.00;;;11.67;;
6255;SDS011;3161;48.794;9.784;2022-08-19T03:01:09;14.37;;;11.53;;
6255;SDS011;3161;48.794;9.784;2022-08-19T03:03:38;12.33;;;11.17;;
6255;SDS011;3161;48.794;9.784;2022-08-19T03:06:12;12.90;;;11.70;;
6255;SDS011;3161;48.794;9.784;2022-08-19T03:08:36;15.43;;;11.70;;
6255;SDS011;3161;48.794;9.784;2022-08-19T03:11:05;13.10;;;11.83;;
6255;SDS011;3161;48.794;9.784;2022-08-19T03:13:32;13.17;;;11.83;;
6255;SDS011;3161;48.794;9.784;2022-08-19T03:16:00;13.50;;;12.20;;
6255;SDS011;3161;48.794;9.784;2022-08-19T03:18:31;14.60;;;12.10;;
6255;SDS011;3161;48.794;9.784;2022-08-19T03:20:58;15.23;;;12.77;;
6255;SDS011;3161;48.794;9.784;2022-08-19T03:23:26;13.20;;;12.00;;
6255;SDS011;3161;48.794;9.784;2022-08-19T03:25:54;20.30;;;13.00;;
6255;SDS011;3161;48.794;9.784;2022-08-19T03:28:21;14.40;;;12.97;;
6255;SDS011;3161;48.794;9.784;2022-08-19T03:30:56;14.23;;;12.83;;
6255;SDS011;3161;48.794;9.784;2022-08-19T03:33:26;14.00;;;12.13;;
6255;SDS011;3161;48.794;9.784;2022-08-19T03:36:11;14.40;;;12.90;;
6255;SDS011;3161;48.794;9.784;2022-08-19T03:38:42;16.50;;;13.27;;
6255;SDS011;3161;48.794;9.784;2022-08-19T03:41:19;15.53;;;13.37;;
6255;SDS011;3161;48.794;9.784;2022-08-19T03:43:48;14.83;;;13.43;;
6255;SDS011;3161;48.794;9.784;2022-08-19T03:46:18;15.00;;;13.27;;
6255;SDS011;3161;48.794;9.784;2022-08-19T03:48:48;14.30;;;12.80;;
6255;SDS011;3161;48.794;9.784;2022-08-19T03:51:24;14.37;;;12.97;;
6255;SDS011;3161;48.794;9.784;2022-08-19T03:53:54;14.47;;;13.13;;
6255;SDS011;3161;48.794;9.784;2022-08-19T03:56:22;14.03;;;12.63;;
6255;SDS011;3161;48.794;9.784;2022-08-19T03:58:51;14.00;;;12.70;;
6255;SDS011;3161;48.794;9.784;2022-08-19T04:01:20;14.83;;;13.20;;
6255;SDS011;3161;48.794;9.784;2022-08-19T04:03:52;14.90;;;13.50;;
6255;SDS011;3161;48.794;9.784;2022-08-19T04:06:26;15.77;;;13.77;;
6255;SDS011;3161;48.794;9.784;2022-08-19T04:08:51;14.77;;;13.37;;
6255;SDS011;3161;48.794;9.784;2022-08-19T04:11:21;15.10;;;13.63;;
6255;SDS011;3161;48.794;9.784;2022-08-19T04:13:51;15.97;;;14.40;;
6255;SDS011;3161;48.794;9.784;2022-08-19T04:16:20;17.97;;;13.70;;
6255;SDS011;3161;48.794;9.784;2022-08-19T04:18:50;16.20;;;14.50;;
6255;SDS011;3161;48.794;9.784;2022-08-19T04:21:24;14.50;;;13.00;;
6255;SDS011;3161;48.794;9.784;2022-08-19T04:23:48;15.90;;;14.33;;
6255;SDS011;3161;48.794;9.784;2022-08-19T04:26:17;18.07;;;14.70;;
6255;SDS011;3161;48.794;9.784;2022-08-19T04:28:47;17.07;;;14.43;;
6255;SDS011;3161;48.794;9.784;2022-08-19T04:31:19;17.00;;;14.90;;
6255;SDS011;3161;48.794;9.784;2022-08-19T04:33:47;16.27;;;14.57;;
6255;SDS011;3161;48.794;9.784;2022-08-19T04:36:19;21.80;;;15.83;;
6255;SDS011;3161;48.794;9.784;2022-08-19T04:38:49;16.90;;;15.10;;
6255;SDS011;3161;48.794;9.784;2022-08-19T04:41:18;16.70;;;14.87;;
6255;SDS011;3161;48.794;9.784;2022-08-19T04:44:03;16.70;;;14.83;;
6255;SDS011;3161;48.794;9.784;2022-08-19T04:46:32;18.27;;;16.30;;
6255;SDS011;3161;48.794;9.784;2022-08-19T04:49:01;20.63;;;16.03;;
6255;SDS011;3161;48.794;9.784;2022-08-19T04:51:31;19.40;;;16.00;;
6255;SDS011;3161;48.794;9.784;2022-08-19T04:54:00;18.63;;;16.77;;
6255;SDS011;3161;48.794;9.784;2022-08-19T04:56:29;19.00;;;17.00;;
6255;SDS011;3161;48.794;9.784;2022-08-19T04:58:57;18.57;;;16.63;;
6255;SDS011;3161;48.794;9.784;2022-08-19T05:01:27;20.57;;;16.77;;
6255;SDS011;3161;48.794;9.784;2022-08-19T05:03:58;20.73;;;16.50;;
6255;SDS011;3161;48.794;9.784;2022-08-19T05:06:28;18.87;;;16.23;;
6255;SDS011;3161;48.794;9.784;2022-08-19T05:08:57;20.10;;;16.80;;
6255;SDS011;3161;48.794;9.784;2022-08-19T05:11:26;19.27;;;16.90;;
6255;SDS011;3161;48.794;9.784;2022-08-19T05:13:55;21.17;;;16.90;;
6255;SDS011;3161;48.794;9.784;2022-08-19T05:16:24;18.73;;;16.10;;
6255;SDS011;3161;48.794;9.784;2022-08-19T05:18:54;19.43;;;17.40;;
6255;SDS011;3161;48.794;9.784;2022-08-19T05:21:40;23.07;;;16.70;;
6255;SDS011;3161;48.794;9.784;2022-08-19T05:24:27;17.67;;;15.97;;
6255;SDS011;3161;48.794;9.784;2022-08-19T05:26:55;19.20;;;16.53;;
6255;SDS011;3161;48.794;9.784;2022-08-19T05:29:24;24.00;;;17.17;;
6255;SDS011;3161;48.794;9.784;2022-08-19T05:31:54;17.30;;;15.40;;
6255;SDS011;3161;48.794;9.784;2022-08-19T05:34:22;19.07;;;15.63;;
6255;SDS011;3161;48.794;9.784;2022-08-19T05:36:55;18.87;;;16.00;;
6255;SDS011;3161;48.794;9.784;2022-08-19T05:39:23;18.70;;;16.70;;
6255;SDS011;3161;48.794;9.784;2022-08-19T05:41:55;19.60;;;15.60;;
6255;SDS011;3161;48.794;9.784;2022-08-19T05:44:24;20.90;;;16.70;;
6255;SDS011;3161;48.794;9.784;2022-08-19T05:46:55;17.07;;;15.33;;
6255;SDS011;3161;48.794;9.784;2022-08-19T05:49:23;17.90;;;16.03;;
6255;SDS011;3161;48.794;9.784;2022-08-19T05:51:51;19.03;;;15.83;;
6255;SDS011;3161;48.794;9.784;2022-08-19T05:54:21;20.87;;;15.63;;
6255;SDS011;3161;48.794;9.784;2022-08-19T05:56:50;23.30;;;15.73;;
6255;SDS011;3161;48.794;9.784;2022-08-19T05:59:19;17.23;;;15.53;;
6255;SDS011;3161;48.794;9.784;2022-08-19T06:01:48;16.47;;;14.70;;
6255;SDS011;3161;48.794;9.784;2022-08-19T06:04:18;20.00;;;16.33;;
6255;SDS011;3161;48.794;9.784;2022-08-19T06:06:46;17.30;;;14.93;;
6255;SDS011;3161;48.794;9.784;2022-08-19T06:09:15;21.67;;;15.67;;
6255;SDS011;3161;48.794;9.784;2022-08-19T06:11:47;18.93;;;15.87;;
6255;SDS011;3161;48.794;9.784;2022-08-19T06:14:20;17.47;;;15.27;;
6255;SDS011;3161;48.794;9.784;2022-08-19T06:16:52;18.73;;;16.73;;
6255;SDS011;3161;48.794;9.784;2022-08-19T06:19:21;21.07;;;16.40;;
6255;SDS011;3161;48.794;9.784;2022-08-19T06:21:51;19.73;;;16.83;;
6255;SDS011;3161;48.794;9.784;2022-08-19T06:24:24;19.27;;;16.13;;
6255;SDS011;3161;48.794;9.784;2022-08-19T06:26:51;24.70;;;17.33;;
6255;SDS011;3161;48.794;9.784;2022-08-19T06:29:21;19.43;;;17.33;;
6255;SDS011;3161;48.794;9.784;2022-08-19T06:31:52;19.47;;;16.47;;
6255;SDS011;3161;48.794;9.784;2022-08-19T06:34:21;17.10;;;15.27;;
6255;SDS011;3161;48.794;9.784;2022-08-19T06:36:50;20.57;;;16.53;;
6255;SDS011;3161;48.794;9.784;2022-08-19T06:39:22;20.40;;;16.27;;
6255;SDS011;3161;48.794;9.784;2022-08-19T06:41:53;20.97;;;16.57;;
6255;SDS011;3161;48.794;9.784;2022-08-19T06:44:23;19.20;;;15.93;;
6255;SDS011;3161;48.794;9.784;2022-08-19T06:46:53;21.07;;;16.77;;
6255;SDS011;3161;48.794;9.784;2022-08-19T06:49:22;18.73;;;16.03;;
6255;SDS011;3161;48.794;9.784;2022-08-19T06:51:50;19.87;;;16.57;;
6255;SDS011;3161;48.794;9.784;2022-08-19T06:54:18;24.30;;;16.90;;
6255;SDS011;3161;48.794;9.784;2022-08-19T06:56:46;21.37;;;17.03;;
6255;SDS011;3161;48.794;9.784;2022-08-19T06:59:16;19.37;;;15.93;;
6255;SDS011;3161;48.794;9.784;2022-08-19T07:01:51;20.57;;;17.60;;
6255;SDS011;3161;48.794;9.784;2022-08-19T07:04:21;22.10;;;18.17;;
6255;SDS011;3161;48.794;9.784;2022-08-19T07:06:47;21.93;;;17.30;;
6255;SDS011;3161;48.794;9.784;2022-08-19T07:09:16;23.03;;;17.03;;
6255;SDS011;3161;48.794;9.784;2022-08-19T07:11:47;23.33;;;18.00;;
6255;SDS011;3161;48.794;9.784;2022-08-19T07:14:16;21.37;;;17.37;;
6255;SDS011;3161;48.794;9.784;2022-08-19T07:16:46;29.90;;;17.37;;
6255;SDS011;3161;48.794;9.784;2022-08-19T07:19:15;23.57;;;18.77;;
6255;SDS011;3161;48.794;9.784;2022-08-19T07:21:45;23.37;;;17.73;;
6255;SDS011;3161;48.794;9.784;2022-08-19T07:24:15;24.83;;;18.87;;
6255;SDS011;3161;48.794;9.784;2022-08-19T07:26:43;24.67;;;19.70;;
6255;SDS011;3161;48.794;9.784;2022-08-19T07:29:11;25.67;;;18.97;;
6255;SDS011;3161;48.794;9.784;2022-08-19T07:31:39;22.10;;;18.57;;
6255;SDS011;3161;48.794;9.784;2022-08-19T07:34:07;24.40;;;19.43;;
6255;SDS011;3161;48.794;9.784;2022-08-19T07:36:38;32.17;;;21.20;;
6255;SDS011;3161;48.794;9.784;2022-08-19T07:39:09;26.60;;;19.90;;
6255;SDS011;3161;48.794;9.784;2022-08-19T07:41:39;28.57;;;20.43;;
6255;SDS011;3161;48.794;9.784;2022-08-19T07:44:08;29.33;;;19.93;;
6255;SDS011;3161;48.794;9.784;2022-08-19T07:46:39;26.20;;;20.23;;
6255;SDS011;3161;48.794;9.784;2022-08-19T07:49:10;31.63;;;19.97;;
6255;SDS011;3161;48.794;9.784;2022-08-19T07:51:40;29.60;;;22.37;;
6255;SDS011;3161;48.794;9.784;2022-08-19T07:54:08;26.47;;;20.37;;
6255;SDS011;3161;48.794;9.784;2022-08-19T07:56:35;29.60;;;20.63;;
6255;SDS011;3161;48.794;9.784;2022-08-19T07:59:03;26.57;;;20.47;;
6255;SDS011;3161;48.794;9.784;2022-08-19T08:01:30;29.10;;;22.33;;
6255;SDS011;3161;48.794;9.784;2022-08-19T08:03:58;31.03;;;21.93;;
6255;SDS011;3161;48.794;9.784;2022-08-19T08:06:44;26.40;;;20.93;;
6255;SDS011;3161;48.794;9.784;2022-08-19T08:09:35;29.10;;;21.30;;
6255;SDS011;3161;48.794;9.784;2022-08-19T08:12:02;30.70;;;21.13;;
6255;SDS011;3161;48.794;9.784;2022-08-19T08:14:33;29.60;;;21.03;;
6255;SDS011;3161;48.794;9.784;2022-08-19T08:17:08;27.17;;;21.07;;
6255;SDS011;3161;48.794;9.784;2022-08-19T08:22:23;30.37;;;22.00;;
6255;SDS011;3161;48.794;9.784;2022-08-19T08:25:11;31.97;;;23.33;;
6255;SDS011;3161;48.794;9.784;2022-08-19T08:27:41;27.43;;;21.47;;
6255;SDS011;3161;48.794;9.784;2022-08-19T08:30:16;27.20;;;23.03;;
6255;SDS011;3161;48.794;9.784;2022-08-19T08:32:44;28.63;;;22.57;;
6255;SDS011;3161;48.794;9.784;2022-08-19T08:35:14;25.57;;;21.53;;
6255;SDS011;3161;48.794;9.784;2022-08-19T08:37:43;30.77;;;22.50;;
6255;SDS011;3161;48.794;9.784;2022-08-19T08:40:22;31.53;;;23.03;;
6255;SDS011;3161;48.794;9.784;2022-08-19T08:43:06;37.40;;;26.73;;
6255;SDS011;3161;48.794;9.784;2022-08-19T08:45:38;31.23;;;23.40;;
6255;SDS011;3161;48.794;9.784;2022-08-19T08:48:18;33.90;;;23.40;;
6255;SDS011;3161;48.794;9.784;2022-08-19T08:50:51;32.03;;;22.17;;
6255;SDS011;3161;48.794;9.784;2022-08-19T08:53:21;32.30;;;23.20;;
6255;SDS011;3161;48.794;9.784;2022-08-19T08:55:49;33.13;;;23.33;;
6255;SDS011;3161;48.794;9.784;2022-08-19T08:58:20;31.23;;;24.57;;
6255;SDS011;3161;48.794;9.784;2022-08-19T09:00:57;29.43;;;22.80;;
6255;SDS011;3161;48.794;9.784;2022-08-19T09:03:26;34.10;;;23.67;;
6255;SDS011;3161;48.794;9.784;2022-08-19T09:11:19;34.83;;;24.83;;
6255;SDS011;3161;48.794;9.784;2022-08-19T09:14:17;31.87;;;23.83;;
6255;SDS011;3161;48.794;9.784;2022-08-19T09:16:46;33.83;;;23.50;;
6255;SDS011;3161;48.794;9.784;2022-08-19T09:19:15;32.43;;;23.73;;
6255;SDS011;3161;48.794;9.784;2022-08-19T09:21:43;31.17;;;23.57;;
6255;SDS011;3161;48.794;9.784;2022-08-19T09:24:11;36.07;;;25.00;;
6255;SDS011;3161;48.794;9.784;2022-08-19T09:26:39;34.27;;;25.07;;
6255;SDS011;3161;48.794;9.784;2022-08-19T09:29:08;33.03;;;24.80;;
6255;SDS011;3161;48.794;9.784;2022-08-19T09:31:36;33.93;;;24.53;;
6255;SDS011;3161;48.794;9.784;2022-08-19T09:34:04;29.77;;;24.37;;
6255;SDS011;3161;48.794;9.784;2022-08-19T09:36:32;35.77;;;25.37;;
6255;SDS011;3161;48.794;9.784;2022-08-19T09:39:03;36.20;;;24.67;;
6255;SDS011;3161;48.794;9.784;2022-08-19T09:41:31;32.87;;;25.00;;
6255;SDS011;3161;48.794;9.784;2022-08-19T09:44:00;35.43;;;25.00;;
6255;SDS011;3161;48.794;9.784;2022-08-19T09:46:28;31.37;;;25.17;;
6255;SDS011;3161;48.794;9.784;2022-08-19T09:48:57;34.77;;;23.13;;
6255;SDS011;3161;48.794;9.784;2022-08-19T09:51:26;31.77;;;24.53;;
6255;SDS011;3161;48.794;9.784;2022-08-19T09:53:58;31.57;;;24.40;;
6255;SDS011;3161;48.794;9.784;2022-08-19T09:56:28;33.73;;;23.60;;
6255;SDS011;3161;48.794;9.784;2022-08-19T09:58:58;33.07;;;25.10;;
6255;SDS011;3161;48.794;9.784;2022-08-19T10:01:27;34.37;;;23.27;;
6255;SDS011;3161;48.794;9.784;2022-08-19T10:03:57;34.17;;;24.17;;
6255;SDS011;3161;48.794;9.784;2022-08-19T10:06:26;33.50;;;22.60;;
6255;SDS011;3161;48.794;9.784;2022-08-19T10:08:57;31.07;;;22.80;;
6255;SDS011;3161;48.794;9.784;2022-08-19T10:11:25;31.20;;;22.77;;
6255;SDS011;3161;48.794;9.784;2022-08-19T10:13:54;37.20;;;24.47;;
6255;SDS011;3161;48.794;9.784;2022-08-19T10:16:22;32.57;;;22.67;;
6255;SDS011;3161;48.794;9.784;2022-08-19T10:18:51;27.70;;;22.70;;
6255;SDS011;3161;48.794;9.784;2022-08-19T10:21:22;28.80;;;23.50;;
6255;SDS011;3161;48.794;9.784;2022-08-19T10:23:52;25.10;;;21.60;;
6255;SDS011;3161;48.794;9.784;2022-08-19T10:26:24;32.87;;;24.53;;
6255;SDS011;3161;48.794;9.784;2022-08-19T10:28:53;31.20;;;23.87;;
6255;SDS011;3161;48.794;9.784;2022-08-19T10:31:24;26.17;;;21.87;;
6255;SDS011;3161;48.794;9.784;2022-08-19T10:33:54;28.97;;;22.13;;
6255;SDS011;3161;48.794;9.784;2022-08-19T10:36:26;29.90;;;22.97;;
6255;SDS011;3161;48.794;9.784;2022-08-19T10:38:57;29.93;;;20.90;;
6255;SDS011;3161;48.794;9.784;2022-08-19T10:41:28;29.13;;;21.77;;
6255;SDS011;3161;48.794;9.784;2022-08-19T10:43:59;32.87;;;22.03;;
6255;SDS011;3161;48.794;9.784;2022-08-19T10:46:29;26.67;;;20.93;;
6255;SDS011;3161;48.794;9.784;2022-08-19T10:48:58;29.00;;;21.40;;
6255;SDS011;3161;48.794;9.784;2022-08-19T10:51:29;28.60;;;21.13;;
6255;SDS011;3161;48.794;9.784;2022-08-19T10:54:15;27.43;;;21.20;;
6255;SDS011;3161;48.794;9.784;2022-08-19T10:56:43;27.70;;;21.73;;
6255;SDS011;3161;48.794;9.784;2022-08-19T10:59:21;25.97;;;21.03;;
6255;SDS011;3161;48.794;9.784;2022-08-19T11:01:53;29.80;;;19.10;;
6255;SDS011;3161;48.794;9.784;2022-08-19T11:04:23;28.23;;;20.47;;
6255;SDS011;3161;48.794;9.784;2022-08-19T11:06:50;22.70;;;18.60;;
6255;SDS011;3161;48.794;9.784;2022-08-19T11:09:21;23.47;;;19.40;;
6255;SDS011;3161;48.794;9.784;2022-08-19T11:11:52;27.07;;;20.20;;
6255;SDS011;3161;48.794;9.784;2022-08-19T11:14:20;24.20;;;19.43;;
6255;SDS011;3161;48.794;9.784;2022-08-19T11:16:51;27.93;;;19.87;;
6255;SDS011;3161;48.794;9.784;2022-08-19T11:19:22;26.07;;;19.43;;
6255;SDS011;3161;48.794;9.784;2022-08-19T11:21:50;24.03;;;19.53;;
6255;SDS011;3161;48.794;9.784;2022-08-19T11:24:21;26.50;;;19.93;;
6255;SDS011;3161;48.794;9.784;2022-08-19T11:26:52;29.30;;;19.60;;
6255;SDS011;3161;48.794;9.784;2022-08-19T11:29:22;25.80;;;20.23;;
6255;SDS011;3161;48.794;9.784;2022-08-19T11:31:51;25.80;;;20.67;;
6255;SDS011;3161;48.794;9.784;2022-08-19T11:34:20;31.67;;;21.43;;
6255;SDS011;3161;48.794;9.784;2022-08-19T11:36:49;29.77;;;22.30;;
6255;SDS011;3161;48.794;9.784;2022-08-19T11:39:19;28.60;;;21.87;;
6255;SDS011;3161;48.794;9.784;2022-08-19T11:41:48;29.13;;;21.17;;
6255;SDS011;3161;48.794;9.784;2022-08-19T11:44:16;34.00;;;21.97;;
6255;SDS011;3161;48.794;9.784;2022-08-19T11:46:44;28.67;;;21.57;;
6255;SDS011;3161;48.794;9.784;2022-08-19T11:49:17;29.17;;;23.00;;
6255;SDS011;3161;48.794;9.784;2022-08-19T11:51:44;30.43;;;23.10;;
6255;SDS011;3161;48.794;9.784;2022-08-19T11:54:13;29.77;;;23.30;;
6255;SDS011;3161;48.794;9.784;2022-08-19T11:56:44;31.93;;;22.63;;
6255;SDS011;3161;48.794;9.784;2022-08-19T11:59:13;30.07;;;22.03;;
6255;SDS011;3161;48.794;9.784;2022-08-19T12:01:41;32.77;;;23.03;;
6255;SDS011;3161;48.794;9.784;2022-08-19T12:04:10;32.07;;;23.47;;
6255;SDS011;3161;48.794;9.784;2022-08-19T12:06:38;36.47;;;23.50;;
6255;SDS011;3161;48.794;9.784;2022-08-19T12:09:08;27.57;;;21.83;;
6255;SDS011;3161;48.794;9.784;2022-08-19T12:11:37;31.53;;;22.83;;
6255;SDS011;3161;48.794;9.784;2022-08-19T12:14:06;31.93;;;23.57;;
6255;SDS011;3161;48.794;9.784;2022-08-19T12:16:40;30.77;;;23.80;;
6255;SDS011;3161;48.794;9.784;2022-08-19T12:19:07;30.57;;;23.70;;
6255;SDS011;3161;48.794;9.784;2022-08-19T12:21:35;33.33;;;24.80;;
6255;SDS011;3161;48.794;9.784;2022-08-19T12:24:03;35.30;;;23.23;;
6255;SDS011;3161;48.794;9.784;2022-08-19T12:26:32;38.03;;;24.93;;
6255;SDS011;3161;48.794;9.784;2022-08-19T12:29:00;40.53;;;25.47;;
6255;SDS011;3161;48.794;9.784;2022-08-19T12:31:28;32.30;;;25.40;;
6255;SDS011;3161;48.794;9.784;2022-08-19T12:33:55;42.87;;;27.10;;
6255;SDS011;3161;48.794;9.784;2022-08-19T12:36:24;34.87;;;25.83;;
6255;SDS011;3161;48.794;9.784;2022-08-19T12:38:52;33.57;;;25.37;;
6255;SDS011;3161;48.794;9.784;2022-08-19T12:41:19;33.40;;;24.93;;
6255;SDS011;3161;48.794;9.784;2022-08-19T12:43:48;32.97;;;25.23;;
6255;SDS011;3161;48.794;9.784;2022-08-19T12:46:16;37.37;;;26.10;;
6255;SDS011;3161;48.794;9.784;2022-08-19T12:48:45;35.37;;;24.90;;
6255;SDS011;3161;48.794;9.784;2022-08-19T12:51:15;33.03;;;25.07;;
6255;SDS011;3161;48.794;9.784;2022-08-19T12:53:45;35.10;;;24.97;;
6255;SDS011;3161;48.794;9.784;2022-08-19T12:56:15;33.53;;;25.33;;
6255;SDS011;3161;48.794;9.784;2022-08-19T12:58:44;33.90;;;25.57;;
6255;SDS011;3161;48.794;9.784;2022-08-19T13:01:13;35.20;;;24.43;;
6255;SDS011;3161;48.794;9.784;2022-08-19T13:03:42;30.37;;;22.13;;
6255;SDS011;3161;48.794;9.784;2022-08-19T13:06:11;28.73;;;22.70;;
6255;SDS011;3161;48.794;9.784;2022-08-19T13:08:40;28.27;;;23.13;;
6255;SDS011;3161;48.794;9.784;2022-08-19T13:11:14;29.33;;;23.77;;
6255;SDS011;3161;48.794;9.784;2022-08-19T13:13:39;29.17;;;23.37;;
6255;SDS011;3161;48.794;9.784;2022-08-19T13:16:09;30.23;;;23.80;;
6255;SDS011;3161;48.794;9.784;2022-08-19T13:18:38;33.90;;;24.70;;
6255;SDS011;3161;48.794;9.784;2022-08-19T13:21:08;33.23;;;23.80;;
6255;SDS011;3161;48.794;9.784;2022-08-19T13:23:39;29.53;;;22.43;;
6255;SDS011;3161;48.794;9.784;2022-08-19T13:26:08;26.43;;;22.13;;
6255;SDS011;3161;48.794;9.784;2022-08-19T13:28:37;25.90;;;21.10;;
6255;SDS011;3161;48.794;9.784;2022-08-19T13:31:24;29.93;;;22.53;;
6255;SDS011;3161;48.794;9.784;2022-08-19T13:34:12;29.80;;;22.00;;
6255;SDS011;3161;48.794;9.784;2022-08-19T13:36:41;28.77;;;22.30;;
6255;SDS011;3161;48.794;9.784;2022-08-19T13:39:08;24.23;;;20.27;;
6255;SDS011;3161;48.794;9.784;2022-08-19T13:41:37;25.03;;;20.60;;
6255;SDS011;3161;48.794;9.784;2022-08-19T13:44:06;26.20;;;21.20;;
6255;SDS011;3161;48.794;9.784;2022-08-19T13:46:34;25.73;;;20.10;;
6255;SDS011;3161;48.794;9.784;2022-08-19T13:49:01;28.70;;;21.20;;
6255;SDS011;3161;48.794;9.784;2022-08-19T13:51:29;27.97;;;21.00;;
6255;SDS011;3161;48.794;9.784;2022-08-19T13:53:57;27.37;;;21.97;;
6255;SDS011;3161;48.794;9.784;2022-08-19T13:56:25;29.77;;;21.90;;
6255;SDS011;3161;48.794;9.784;2022-08-19T13:58:52;25.53;;;20.90;;
6255;SDS011;3161;48.794;9.784;2022-08-19T14:01:21;28.50;;;20.90;;
6255;SDS011;3161;48.794;9.784;2022-08-19T14:03:50;27.03;;;21.00;;
6255;SDS011;3161;48.794;9.784;2022-08-19T14:06:18;28.57;;;22.57;;
6255;SDS011;3161;48.794;9.784;2022-08-19T14:08:47;27.43;;;21.40;;
6255;SDS011;3161;48.794;9.784;2022-08-19T14:11:15;27.93;;;21.83;;
6255;SDS011;3161;48.794;9.784;2022-08-19T14:13:43;27.17;;;20.70;;
6255;SDS011;3161;48.794;9.784;2022-08-19T14:16:12;25.23;;;20.13;;
6255;SDS011;3161;48.794;9.784;2022-08-19T14:18:41;25.73;;;18.53;;
6255;SDS011;3161;48.794;9.784;2022-08-19T14:21:13;24.07;;;18.50;;
6255;SDS011;3161;48.794;9.784;2022-08-19T14:23:46;25.33;;;19.43;;
6255;SDS011;3161;48.794;9.784;2022-08-19T14:26:15;25.40;;;19.20;;
6255;SDS011;3161;48.794;9.784;2022-08-19T14:28:43;28.57;;;20.57;;
6255;SDS011;3161;48.794;9.784;2022-08-19T14:31:12;22.67;;;19.47;;
6255;SDS011;3161;48.794;9.784;2022-08-19T14:33:43;23.40;;;18.70;;
6255;SDS011;3161;48.794;9.784;2022-08-19T14:36:10;21.37;;;17.90;;
6255;SDS011;3161;48.794;9.784;2022-08-19T14:38:38;25.23;;;17.37;;
6255;SDS011;3161;48.794;9.784;2022-08-19T14:43:49;25.17;;;17.80;;
6255;SDS011;3161;48.794;9.784;2022-08-19T14:46:19;20.40;;;18.23;;
6255;SDS011;3161;48.794;9.784;2022-08-19T14:48:49;24.60;;;20.30;;
6255;SDS011;3161;48.794;9.784;2022-08-19T14:51:17;22.10;;;19.63;;
6255;SDS011;3161;48.794;9.784;2022-08-19T14:53:45;22.53;;;17.50;;
6255;SDS011;3161;48.794;9.784;2022-08-19T14:56:24;21.77;;;18.63;;
6255;SDS011;3161;48.794;9.784;2022-08-19T14:58:47;18.57;;;16.17;;
6255;SDS011;3161;48.794;9.784;2022-08-19T15:01:19;24.20;;;18.10;;
6255;SDS011;3161;48.794;9.784;2022-08-19T15:03:48;23.13;;;18.17;;
6255;SDS011;3161;48.794;9.784;2022-08-19T15:06:18;22.90;;;18.20;;
6255;SDS011;3161;48.794;9.784;2022-08-19T15:08:46;19.00;;;15.37;;
6255;SDS011;3161;48.794;9.784;2022-08-19T15:11:17;17.10;;;14.40;;
6255;SDS011;3161;48.794;9.784;2022-08-19T15:13:47;17.27;;;15.53;;
6255;SDS011;3161;48.794;9.784;2022-08-19T15:16:15;18.30;;;15.70;;
6255;SDS011;3161;48.794;9.784;2022-08-19T15:18:44;22.57;;;17.63;;